sensor_id;sensor_type;location;lat;lon;timestamp;P1;durP1;ratioP1;P2;durP2;ratioP2
18146;SDS011;9199;48.832;9.182;2023-02-28T00:00:23;5.23;;;2.33;;
18146;SDS011;9199;48.832;9.182;2023-02-28T00:02:50;4.57;;;2.30;;
18146;SDS011;9199;48.832;9.182;2023-02-28T00:05:19;6.88;;;2.50;;
18146;SDS011;9199;48.832;9.182;2023-02-28T00:07:47;5.28;;;2.50;;
18146;SDS011;9199;48.832;9.182;2023-02-28T00:10:14;4.63;;;2.10;;
18146;SDS011;9199;48.832;9.182;2023-02-28T00:12:45;4.83;;;2.20;;
18146;SDS011;9199;48.832;9.182;2023-02-28T00:15:12;4.85;;;2.38;;
18146;SDS011;9199;48.832;9.182;2023-02-28T00:17:39;5.03;;;2.60;;
18146;SDS011;9199;48.832;9.182;2023-02-28T00:20:06;5.53;;;2.22;;
18146;SDS011;9199;48.832;9.182;2023-02-28T00:22:37;5.50;;;2.30;;
18146;SDS011;9199;48.832;9.182;2023-02-28T00:25:04;7.37;;;2.40;;
18146;SDS011;9199;48.832;9.182;2023-02-28T00:27:32;5.43;;;2.50;;
18146;SDS011;9199;48.832;9.182;2023-02-28T00:30:01;5.60;;;2.47;;
18146;SDS011;9199;48.832;9.182;2023-02-28T00:32:29;6.03;;;2.53;;
18146;SDS011;9199;48.832;9.182;2023-02-28T00:34:56;5.97;;;2.70;;
18146;SDS011;9199;48.832;9.182;2023-02-28T00:37:23;5.77;;;2.60;;
18146;SDS011;9199;48.832;9.182;2023-02-28T00:39:49;5.22;;;2.60;;
18146;SDS011;9199;48.832;9.182;2023-02-28T00:42:16;5.35;;;2.60;;
18146;SDS011;9199;48.832;9.182;2023-02-28T00:44:43;6.00;;;2.67;;
18146;SDS011;9199;48.832;9.182;2023-02-28T00:47:11;6.22;;;2.60;;
18146;SDS011;9199;48.832;9.182;2023-02-28T00:49:38;5.50;;;2.80;;
18146;SDS011;9199;48.832;9.182;2023-02-28T00:52:04;5.70;;;2.67;;
18146;SDS011;9199;48.832;9.182;2023-02-28T00:54:31;5.65;;;2.42;;
18146;SDS011;9199;48.832;9.182;2023-02-28T00:56:58;4.60;;;2.50;;
18146;SDS011;9199;48.832;9.182;2023-02-28T00:59:24;5.10;;;2.50;;
18146;SDS011;9199;48.832;9.182;2023-02-28T01:01:51;5.23;;;2.57;;
18146;SDS011;9199;48.832;9.182;2023-02-28T01:04:19;5.13;;;2.78;;
18146;SDS011;9199;48.832;9.182;2023-02-28T01:06:46;7.03;;;2.97;;
18146;SDS011;9199;48.832;9.182;2023-02-28T01:09:13;7.47;;;3.20;;
18146;SDS011;9199;48.832;9.182;2023-02-28T01:11:40;5.43;;;2.55;;
18146;SDS011;9199;48.832;9.182;2023-02-28T01:14:09;5.67;;;2.47;;
18146;SDS011;9199;48.832;9.182;2023-02-28T01:16:39;6.60;;;2.78;;
18146;SDS011;9199;48.832;9.182;2023-02-28T01:19:06;6.25;;;3.05;;
18146;SDS011;9199;48.832;9.182;2023-02-28T01:21:34;5.63;;;3.05;;
18146;SDS011;9199;48.832;9.182;2023-02-28T01:24:01;5.57;;;3.08;;
18146;SDS011;9199;48.832;9.182;2023-02-28T01:26:28;5.70;;;2.93;;
18146;SDS011;9199;48.832;9.182;2023-02-28T01:28:55;6.63;;;2.80;;
18146;SDS011;9199;48.832;9.182;2023-02-28T01:31:22;6.25;;;3.03;;
18146;SDS011;9199;48.832;9.182;2023-02-28T01:33:49;8.20;;;3.42;;
18146;SDS011;9199;48.832;9.182;2023-02-28T01:36:16;6.72;;;3.70;;
18146;SDS011;9199;48.832;9.182;2023-02-28T01:38:46;9.43;;;3.53;;
18146;SDS011;9199;48.832;9.182;2023-02-28T01:41:15;7.03;;;3.63;;
18146;SDS011;9199;48.832;9.182;2023-02-28T01:43:53;8.50;;;4.65;;
18146;SDS011;9199;48.832;9.182;2023-02-28T01:46:22;8.63;;;4.65;;
18146;SDS011;9199;48.832;9.182;2023-02-28T01:48:50;7.22;;;4.03;;
18146;SDS011;9199;48.832;9.182;2023-02-28T01:51:22;6.73;;;3.80;;
18146;SDS011;9199;48.832;9.182;2023-02-28T01:53:54;8.07;;;4.25;;
18146;SDS011;9199;48.832;9.182;2023-02-28T01:56:26;9.93;;;4.25;;
18146;SDS011;9199;48.832;9.182;2023-02-28T01:58:56;7.93;;;3.70;;
18146;SDS011;9199;48.832;9.182;2023-02-28T02:01:24;6.32;;;3.63;;
18146;SDS011;9199;48.832;9.182;2023-02-28T02:03:53;8.23;;;3.90;;
18146;SDS011;9199;48.832;9.182;2023-02-28T02:06:22;7.07;;;3.60;;
18146;SDS011;9199;48.832;9.182;2023-02-28T02:08:49;6.80;;;3.83;;
18146;SDS011;9199;48.832;9.182;2023-02-28T02:11:19;8.10;;;3.60;;
18146;SDS011;9199;48.832;9.182;2023-02-28T02:13:54;7.20;;;3.75;;
18146;SDS011;9199;48.832;9.182;2023-02-28T02:16:38;9.43;;;3.97;;
18146;SDS011;9199;48.832;9.182;2023-02-28T02:19:26;6.70;;;3.80;;
18146;SDS011;9199;48.832;9.182;2023-02-28T02:22:21;6.55;;;3.53;;
18146;SDS011;9199;48.832;9.182;2023-02-28T02:25:14;5.88;;;3.55;;
18146;SDS011;9199;48.832;9.182;2023-02-28T02:30:50;7.40;;;3.73;;
18146;SDS011;9199;48.832;9.182;2023-02-28T02:36:39;7.05;;;3.55;;
18146;SDS011;9199;48.832;9.182;2023-02-28T02:39:14;5.60;;;3.28;;
18146;SDS011;9199;48.832;9.182;2023-02-28T02:41:46;8.35;;;3.65;;
18146;SDS011;9199;48.832;9.182;2023-02-28T02:44:18;7.23;;;3.63;;
18146;SDS011;9199;48.832;9.182;2023-02-28T02:46:48;6.55;;;3.60;;
18146;SDS011;9199;48.832;9.182;2023-02-28T02:49:20;9.38;;;3.83;;
18146;SDS011;9199;48.832;9.182;2023-02-28T02:51:50;7.35;;;3.58;;
18146;SDS011;9199;48.832;9.182;2023-02-28T02:54:19;9.57;;;3.75;;
18146;SDS011;9199;48.832;9.182;2023-02-28T02:56:49;6.00;;;3.40;;
18146;SDS011;9199;48.832;9.182;2023-02-28T02:59:17;9.00;;;3.90;;
18146;SDS011;9199;48.832;9.182;2023-02-28T03:01:48;6.60;;;3.45;;
18146;SDS011;9199;48.832;9.182;2023-02-28T03:04:17;6.30;;;3.58;;
18146;SDS011;9199;48.832;9.182;2023-02-28T03:06:47;8.70;;;3.90;;
18146;SDS011;9199;48.832;9.182;2023-02-28T03:09:19;7.97;;;3.73;;
18146;SDS011;9199;48.832;9.182;2023-02-28T03:11:46;6.90;;;3.95;;
18146;SDS011;9199;48.832;9.182;2023-02-28T03:14:21;7.63;;;3.72;;
18146;SDS011;9199;48.832;9.182;2023-02-28T03:17:08;7.10;;;3.80;;
18146;SDS011;9199;48.832;9.182;2023-02-28T03:19:54;7.10;;;3.70;;
18146;SDS011;9199;48.832;9.182;2023-02-28T03:22:33;7.83;;;3.93;;
18146;SDS011;9199;48.832;9.182;2023-02-28T03:25:16;6.63;;;3.45;;
18146;SDS011;9199;48.832;9.182;2023-02-28T03:27:49;7.13;;;3.75;;
18146;SDS011;9199;48.832;9.182;2023-02-28T03:30:26;6.57;;;3.85;;
18146;SDS011;9199;48.832;9.182;2023-02-28T03:32:59;9.48;;;3.83;;
18146;SDS011;9199;48.832;9.182;2023-02-28T03:35:34;7.53;;;4.00;;
18146;SDS011;9199;48.832;9.182;2023-02-28T03:38:05;7.30;;;4.05;;
18146;SDS011;9199;48.832;9.182;2023-02-28T03:40:39;6.82;;;4.20;;
18146;SDS011;9199;48.832;9.182;2023-02-28T03:43:12;8.02;;;4.30;;
18146;SDS011;9199;48.832;9.182;2023-02-28T03:45:45;8.35;;;4.60;;
18146;SDS011;9199;48.832;9.182;2023-02-28T03:48:17;7.83;;;4.03;;
18146;SDS011;9199;48.832;9.182;2023-02-28T03:50:48;8.60;;;4.43;;
18146;SDS011;9199;48.832;9.182;2023-02-28T03:53:21;8.52;;;4.28;;
18146;SDS011;9199;48.832;9.182;2023-02-28T03:55:52;7.18;;;4.05;;
18146;SDS011;9199;48.832;9.182;2023-02-28T03:58:25;7.35;;;4.00;;
18146;SDS011;9199;48.832;9.182;2023-02-28T04:00:57;7.77;;;4.20;;
18146;SDS011;9199;48.832;9.182;2023-02-28T04:03:32;8.43;;;4.03;;
18146;SDS011;9199;48.832;9.182;2023-02-28T04:06:01;7.93;;;4.25;;
18146;SDS011;9199;48.832;9.182;2023-02-28T04:08:30;8.52;;;4.32;;
18146;SDS011;9199;48.832;9.182;2023-02-28T04:10:58;9.63;;;4.20;;
18146;SDS011;9199;48.832;9.182;2023-02-28T04:13:29;8.03;;;3.90;;
18146;SDS011;9199;48.832;9.182;2023-02-28T04:15:56;6.85;;;3.78;;
18146;SDS011;9199;48.832;9.182;2023-02-28T04:18:23;7.63;;;4.20;;
18146;SDS011;9199;48.832;9.182;2023-02-28T04:20:49;9.75;;;3.80;;
18146;SDS011;9199;48.832;9.182;2023-02-28T04:23:17;9.57;;;4.25;;
18146;SDS011;9199;48.832;9.182;2023-02-28T04:25:44;7.73;;;4.30;;
18146;SDS011;9199;48.832;9.182;2023-02-28T04:28:11;7.20;;;3.60;;
18146;SDS011;9199;48.832;9.182;2023-02-28T04:30:37;7.95;;;4.10;;
18146;SDS011;9199;48.832;9.182;2023-02-28T04:33:05;6.90;;;3.90;;
18146;SDS011;9199;48.832;9.182;2023-02-28T04:35:32;8.85;;;4.80;;
18146;SDS011;9199;48.832;9.182;2023-02-28T04:37:59;7.77;;;4.40;;
18146;SDS011;9199;48.832;9.182;2023-02-28T04:40:27;8.43;;;4.38;;
18146;SDS011;9199;48.832;9.182;2023-02-28T04:42:54;8.88;;;5.30;;
18146;SDS011;9199;48.832;9.182;2023-02-28T04:45:20;7.30;;;4.00;;
18146;SDS011;9199;48.832;9.182;2023-02-28T04:47:47;7.30;;;4.00;;
18146;SDS011;9199;48.832;9.182;2023-02-28T04:50:14;7.37;;;4.33;;
18146;SDS011;9199;48.832;9.182;2023-02-28T04:52:41;8.90;;;4.35;;
18146;SDS011;9199;48.832;9.182;2023-02-28T04:55:08;8.00;;;4.43;;
18146;SDS011;9199;48.832;9.182;2023-02-28T04:57:36;8.50;;;4.30;;
18146;SDS011;9199;48.832;9.182;2023-02-28T05:00:03;7.80;;;4.45;;
18146;SDS011;9199;48.832;9.182;2023-02-28T05:02:36;8.93;;;4.80;;
18146;SDS011;9199;48.832;9.182;2023-02-28T05:05:03;8.50;;;3.95;;
18146;SDS011;9199;48.832;9.182;2023-02-28T05:07:30;10.10;;;5.15;;
18146;SDS011;9199;48.832;9.182;2023-02-28T05:09:57;9.85;;;4.65;;
18146;SDS011;9199;48.832;9.182;2023-02-28T05:12:23;9.20;;;4.57;;
18146;SDS011;9199;48.832;9.182;2023-02-28T05:14:51;8.37;;;4.37;;
18146;SDS011;9199;48.832;9.182;2023-02-28T05:17:18;9.02;;;4.60;;
18146;SDS011;9199;48.832;9.182;2023-02-28T05:19:45;8.52;;;4.55;;
18146;SDS011;9199;48.832;9.182;2023-02-28T05:22:13;8.50;;;4.63;;
18146;SDS011;9199;48.832;9.182;2023-02-28T05:24:41;8.07;;;4.75;;
18146;SDS011;9199;48.832;9.182;2023-02-28T05:27:08;8.83;;;4.60;;
18146;SDS011;9199;48.832;9.182;2023-02-28T05:29:34;9.15;;;4.90;;
18146;SDS011;9199;48.832;9.182;2023-02-28T05:32:07;9.23;;;5.10;;
18146;SDS011;9199;48.832;9.182;2023-02-28T05:34:35;8.55;;;4.68;;
18146;SDS011;9199;48.832;9.182;2023-02-28T05:37:02;9.82;;;4.57;;
18146;SDS011;9199;48.832;9.182;2023-02-28T05:39:29;10.77;;;4.67;;
18146;SDS011;9199;48.832;9.182;2023-02-28T05:41:56;9.52;;;4.97;;
18146;SDS011;9199;48.832;9.182;2023-02-28T05:44:22;9.10;;;4.95;;
18146;SDS011;9199;48.832;9.182;2023-02-28T05:46:49;11.60;;;5.20;;
18146;SDS011;9199;48.832;9.182;2023-02-28T05:49:17;7.78;;;4.90;;
18146;SDS011;9199;48.832;9.182;2023-02-28T05:51:44;8.80;;;5.00;;
18146;SDS011;9199;48.832;9.182;2023-02-28T05:54:11;8.98;;;4.43;;
18146;SDS011;9199;48.832;9.182;2023-02-28T05:56:37;9.88;;;4.80;;
18146;SDS011;9199;48.832;9.182;2023-02-28T05:59:05;8.75;;;4.60;;
18146;SDS011;9199;48.832;9.182;2023-02-28T06:01:33;9.57;;;4.85;;
18146;SDS011;9199;48.832;9.182;2023-02-28T06:04:02;9.00;;;4.70;;
18146;SDS011;9199;48.832;9.182;2023-02-28T06:06:31;8.98;;;4.40;;
18146;SDS011;9199;48.832;9.182;2023-02-28T06:08:59;7.80;;;4.65;;
18146;SDS011;9199;48.832;9.182;2023-02-28T06:11:25;8.38;;;4.70;;
18146;SDS011;9199;48.832;9.182;2023-02-28T06:13:53;7.65;;;4.25;;
18146;SDS011;9199;48.832;9.182;2023-02-28T06:16:20;10.20;;;5.10;;
18146;SDS011;9199;48.832;9.182;2023-02-28T06:18:47;9.98;;;5.03;;
18146;SDS011;9199;48.832;9.182;2023-02-28T06:21:14;8.82;;;5.13;;
18146;SDS011;9199;48.832;9.182;2023-02-28T06:23:42;8.50;;;4.53;;
18146;SDS011;9199;48.832;9.182;2023-02-28T06:26:09;8.45;;;4.72;;
18146;SDS011;9199;48.832;9.182;2023-02-28T06:28:36;8.93;;;5.03;;
18146;SDS011;9199;48.832;9.182;2023-02-28T06:31:05;10.65;;;5.30;;
18146;SDS011;9199;48.832;9.182;2023-02-28T06:33:32;9.57;;;5.43;;
18146;SDS011;9199;48.832;9.182;2023-02-28T06:35:59;13.85;;;5.20;;
18146;SDS011;9199;48.832;9.182;2023-02-28T06:38:26;11.18;;;5.20;;
18146;SDS011;9199;48.832;9.182;2023-02-28T06:40:54;9.23;;;4.50;;
18146;SDS011;9199;48.832;9.182;2023-02-28T06:43:22;9.55;;;4.78;;
18146;SDS011;9199;48.832;9.182;2023-02-28T06:45:49;11.15;;;5.05;;
18146;SDS011;9199;48.832;9.182;2023-02-28T06:48:16;9.55;;;5.07;;
18146;SDS011;9199;48.832;9.182;2023-02-28T06:50:43;12.68;;;5.63;;
18146;SDS011;9199;48.832;9.182;2023-02-28T06:53:10;12.23;;;5.27;;
18146;SDS011;9199;48.832;9.182;2023-02-28T06:55:37;10.80;;;5.35;;
18146;SDS011;9199;48.832;9.182;2023-02-28T06:58:05;9.73;;;5.10;;
18146;SDS011;9199;48.832;9.182;2023-02-28T07:00:39;8.93;;;5.10;;
18146;SDS011;9199;48.832;9.182;2023-02-28T07:03:06;11.15;;;5.32;;
18146;SDS011;9199;48.832;9.182;2023-02-28T07:05:34;9.47;;;5.67;;
18146;SDS011;9199;48.832;9.182;2023-02-28T07:08:00;9.00;;;5.65;;
18146;SDS011;9199;48.832;9.182;2023-02-28T07:10:28;9.95;;;5.38;;
18146;SDS011;9199;48.832;9.182;2023-02-28T07:12:54;10.07;;;5.45;;
18146;SDS011;9199;48.832;9.182;2023-02-28T07:15:23;11.15;;;5.53;;
18146;SDS011;9199;48.832;9.182;2023-02-28T07:17:50;11.27;;;5.40;;
18146;SDS011;9199;48.832;9.182;2023-02-28T07:20:16;10.55;;;5.10;;
18146;SDS011;9199;48.832;9.182;2023-02-28T07:22:43;10.00;;;5.40;;
18146;SDS011;9199;48.832;9.182;2023-02-28T07:25:10;9.90;;;5.53;;
18146;SDS011;9199;48.832;9.182;2023-02-28T07:27:37;10.43;;;5.32;;
18146;SDS011;9199;48.832;9.182;2023-02-28T07:30:04;8.73;;;4.83;;
18146;SDS011;9199;48.832;9.182;2023-02-28T07:32:32;11.00;;;5.13;;
18146;SDS011;9199;48.832;9.182;2023-02-28T07:35:02;10.32;;;5.57;;
18146;SDS011;9199;48.832;9.182;2023-02-28T07:37:29;10.35;;;5.85;;
18146;SDS011;9199;48.832;9.182;2023-02-28T07:40:01;10.55;;;5.50;;
18146;SDS011;9199;48.832;9.182;2023-02-28T07:42:31;12.13;;;5.50;;
18146;SDS011;9199;48.832;9.182;2023-02-28T07:44:58;10.57;;;5.90;;
18146;SDS011;9199;48.832;9.182;2023-02-28T07:47:25;11.85;;;6.15;;
18146;SDS011;9199;48.832;9.182;2023-02-28T07:49:53;11.88;;;5.38;;
18146;SDS011;9199;48.832;9.182;2023-02-28T07:52:19;11.30;;;5.57;;
18146;SDS011;9199;48.832;9.182;2023-02-28T07:54:48;10.87;;;5.97;;
18146;SDS011;9199;48.832;9.182;2023-02-28T07:57:15;11.13;;;5.65;;
18146;SDS011;9199;48.832;9.182;2023-02-28T07:59:41;10.02;;;5.60;;
18146;SDS011;9199;48.832;9.182;2023-02-28T08:02:09;10.27;;;6.15;;
18146;SDS011;9199;48.832;9.182;2023-02-28T08:04:38;9.98;;;5.38;;
18146;SDS011;9199;48.832;9.182;2023-02-28T08:07:06;10.10;;;5.60;;
18146;SDS011;9199;48.832;9.182;2023-02-28T08:09:34;9.07;;;5.40;;
18146;SDS011;9199;48.832;9.182;2023-02-28T08:12:01;10.95;;;5.93;;
18146;SDS011;9199;48.832;9.182;2023-02-28T08:14:27;10.57;;;5.82;;
18146;SDS011;9199;48.832;9.182;2023-02-28T08:16:54;11.82;;;5.88;;
18146;SDS011;9199;48.832;9.182;2023-02-28T08:19:21;10.33;;;5.87;;
18146;SDS011;9199;48.832;9.182;2023-02-28T08:21:47;11.05;;;5.95;;
18146;SDS011;9199;48.832;9.182;2023-02-28T08:24:15;11.50;;;6.00;;
18146;SDS011;9199;48.832;9.182;2023-02-28T08:26:42;12.27;;;5.85;;
18146;SDS011;9199;48.832;9.182;2023-02-28T08:29:09;15.02;;;6.60;;
18146;SDS011;9199;48.832;9.182;2023-02-28T08:31:35;11.20;;;5.93;;
18146;SDS011;9199;48.832;9.182;2023-02-28T08:34:04;10.02;;;5.97;;
18146;SDS011;9199;48.832;9.182;2023-02-28T08:36:32;11.48;;;6.22;;
18146;SDS011;9199;48.832;9.182;2023-02-28T08:38:59;10.70;;;6.07;;
18146;SDS011;9199;48.832;9.182;2023-02-28T08:41:27;11.15;;;6.32;;
18146;SDS011;9199;48.832;9.182;2023-02-28T08:43:54;12.07;;;6.13;;
18146;SDS011;9199;48.832;9.182;2023-02-28T08:46:21;14.25;;;6.97;;
18146;SDS011;9199;48.832;9.182;2023-02-28T08:48:50;12.40;;;6.28;;
18146;SDS011;9199;48.832;9.182;2023-02-28T08:51:19;13.32;;;6.97;;
18146;SDS011;9199;48.832;9.182;2023-02-28T08:53:51;14.77;;;7.13;;
18146;SDS011;9199;48.832;9.182;2023-02-28T08:56:18;13.03;;;6.07;;
18146;SDS011;9199;48.832;9.182;2023-02-28T08:58:47;12.90;;;6.88;;
18146;SDS011;9199;48.832;9.182;2023-02-28T09:01:16;13.15;;;6.57;;
18146;SDS011;9199;48.832;9.182;2023-02-28T09:03:44;12.73;;;7.00;;
18146;SDS011;9199;48.832;9.182;2023-02-28T09:06:12;13.55;;;6.93;;
18146;SDS011;9199;48.832;9.182;2023-02-28T09:08:39;13.97;;;7.07;;
18146;SDS011;9199;48.832;9.182;2023-02-28T09:11:07;16.05;;;7.80;;
18146;SDS011;9199;48.832;9.182;2023-02-28T09:13:34;14.30;;;7.32;;
18146;SDS011;9199;48.832;9.182;2023-02-28T09:16:04;13.68;;;7.25;;
18146;SDS011;9199;48.832;9.182;2023-02-28T09:18:33;16.38;;;8.80;;
18146;SDS011;9199;48.832;9.182;2023-02-28T09:21:02;16.67;;;8.53;;
18146;SDS011;9199;48.832;9.182;2023-02-28T09:23:29;14.07;;;8.05;;
18146;SDS011;9199;48.832;9.182;2023-02-28T09:25:56;13.68;;;7.15;;
18146;SDS011;9199;48.832;9.182;2023-02-28T09:28:23;11.60;;;6.97;;
18146;SDS011;9199;48.832;9.182;2023-02-28T09:30:50;17.73;;;8.70;;
18146;SDS011;9199;48.832;9.182;2023-02-28T09:33:20;15.67;;;7.80;;
18146;SDS011;9199;48.832;9.182;2023-02-28T09:35:48;13.10;;;7.22;;
18146;SDS011;9199;48.832;9.182;2023-02-28T09:38:16;19.95;;;8.23;;
18146;SDS011;9199;48.832;9.182;2023-02-28T09:40:45;17.02;;;8.25;;
18146;SDS011;9199;48.832;9.182;2023-02-28T09:43:15;22.05;;;9.02;;
18146;SDS011;9199;48.832;9.182;2023-02-28T09:45:47;18.47;;;8.33;;
18146;SDS011;9199;48.832;9.182;2023-02-28T09:48:18;15.35;;;7.72;;
18146;SDS011;9199;48.832;9.182;2023-02-28T09:50:50;16.55;;;7.53;;
18146;SDS011;9199;48.832;9.182;2023-02-28T09:53:19;12.43;;;7.35;;
18146;SDS011;9199;48.832;9.182;2023-02-28T09:55:52;12.95;;;6.78;;
18146;SDS011;9199;48.832;9.182;2023-02-28T09:58:26;11.60;;;6.50;;
18146;SDS011;9199;48.832;9.182;2023-02-28T10:00:58;11.23;;;6.75;;
18146;SDS011;9199;48.832;9.182;2023-02-28T10:03:31;11.65;;;6.55;;
18146;SDS011;9199;48.832;9.182;2023-02-28T10:06:03;12.00;;;7.03;;
18146;SDS011;9199;48.832;9.182;2023-02-28T10:08:37;12.63;;;7.63;;
18146;SDS011;9199;48.832;9.182;2023-02-28T10:11:10;12.43;;;7.40;;
18146;SDS011;9199;48.832;9.182;2023-02-28T10:13:43;11.45;;;6.53;;
18146;SDS011;9199;48.832;9.182;2023-02-28T10:16:19;11.40;;;6.53;;
18146;SDS011;9199;48.832;9.182;2023-02-28T10:18:52;11.63;;;7.35;;
18146;SDS011;9199;48.832;9.182;2023-02-28T10:21:24;11.23;;;6.45;;
18146;SDS011;9199;48.832;9.182;2023-02-28T10:23:56;11.87;;;7.30;;
18146;SDS011;9199;48.832;9.182;2023-02-28T10:26:29;12.52;;;7.28;;
18146;SDS011;9199;48.832;9.182;2023-02-28T10:28:58;12.82;;;7.38;;
18146;SDS011;9199;48.832;9.182;2023-02-28T10:31:25;11.23;;;7.10;;
18146;SDS011;9199;48.832;9.182;2023-02-28T10:33:53;11.13;;;7.03;;
18146;SDS011;9199;48.832;9.182;2023-02-28T10:36:21;14.73;;;7.53;;
18146;SDS011;9199;48.832;9.182;2023-02-28T10:38:47;11.43;;;6.72;;
18146;SDS011;9199;48.832;9.182;2023-02-28T10:41:15;10.35;;;6.88;;
18146;SDS011;9199;48.832;9.182;2023-02-28T10:43:43;12.10;;;7.20;;
18146;SDS011;9199;48.832;9.182;2023-02-28T10:46:12;11.98;;;6.80;;
18146;SDS011;9199;48.832;9.182;2023-02-28T10:48:57;12.20;;;7.17;;
18146;SDS011;9199;48.832;9.182;2023-02-28T10:51:34;11.85;;;6.95;;
18146;SDS011;9199;48.832;9.182;2023-02-28T10:54:02;12.50;;;7.53;;
18146;SDS011;9199;48.832;9.182;2023-02-28T10:56:30;11.55;;;7.05;;
18146;SDS011;9199;48.832;9.182;2023-02-28T10:58:59;12.05;;;7.10;;
18146;SDS011;9199;48.832;9.182;2023-02-28T11:01:34;13.30;;;8.00;;
18146;SDS011;9199;48.832;9.182;2023-02-28T11:04:03;14.77;;;8.52;;
18146;SDS011;9199;48.832;9.182;2023-02-28T11:06:43;13.55;;;7.90;;
18146;SDS011;9199;48.832;9.182;2023-02-28T11:09:15;21.65;;;9.50;;
18146;SDS011;9199;48.832;9.182;2023-02-28T11:11:55;16.58;;;8.95;;
18146;SDS011;9199;48.832;9.182;2023-02-28T11:14:23;15.37;;;8.77;;
18146;SDS011;9199;48.832;9.182;2023-02-28T11:16:52;19.63;;;10.27;;
18146;SDS011;9199;48.832;9.182;2023-02-28T11:19:22;13.32;;;7.97;;
18146;SDS011;9199;48.832;9.182;2023-02-28T11:21:52;13.27;;;8.15;;
18146;SDS011;9199;48.832;9.182;2023-02-28T11:24:22;11.95;;;7.35;;
18146;SDS011;9199;48.832;9.182;2023-02-28T11:26:52;12.57;;;7.67;;
18146;SDS011;9199;48.832;9.182;2023-02-28T11:29:20;12.60;;;7.88;;
18146;SDS011;9199;48.832;9.182;2023-02-28T11:32:11;11.55;;;7.93;;
18146;SDS011;9199;48.832;9.182;2023-02-28T11:34:43;10.90;;;6.97;;
18146;SDS011;9199;48.832;9.182;2023-02-28T11:37:12;12.63;;;7.80;;
18146;SDS011;9199;48.832;9.182;2023-02-28T11:39:40;11.70;;;7.07;;
18146;SDS011;9199;48.832;9.182;2023-02-28T11:42:30;12.07;;;7.30;;
18146;SDS011;9199;48.832;9.182;2023-02-28T11:45:12;10.70;;;7.38;;
18146;SDS011;9199;48.832;9.182;2023-02-28T11:47:48;12.23;;;7.57;;
18146;SDS011;9199;48.832;9.182;2023-02-28T11:50:35;12.05;;;7.90;;
18146;SDS011;9199;48.832;9.182;2023-02-28T11:53:14;11.47;;;6.77;;
18146;SDS011;9199;48.832;9.182;2023-02-28T11:55:49;10.05;;;6.70;;
18146;SDS011;9199;48.832;9.182;2023-02-28T11:58:24;12.48;;;7.40;;
18146;SDS011;9199;48.832;9.182;2023-02-28T12:00:59;12.75;;;7.43;;
18146;SDS011;9199;48.832;9.182;2023-02-28T12:03:36;12.27;;;7.32;;
18146;SDS011;9199;48.832;9.182;2023-02-28T12:06:13;11.67;;;7.13;;
18146;SDS011;9199;48.832;9.182;2023-02-28T12:08:48;10.63;;;7.40;;
18146;SDS011;9199;48.832;9.182;2023-02-28T12:11:24;12.60;;;7.82;;
18146;SDS011;9199;48.832;9.182;2023-02-28T12:14:04;9.48;;;6.70;;
18146;SDS011;9199;48.832;9.182;2023-02-28T12:16:50;11.93;;;6.82;;
18146;SDS011;9199;48.832;9.182;2023-02-28T12:19:25;10.23;;;6.63;;
18146;SDS011;9199;48.832;9.182;2023-02-28T12:22:15;9.52;;;6.97;;
18146;SDS011;9199;48.832;9.182;2023-02-28T12:24:51;9.63;;;6.85;;
18146;SDS011;9199;48.832;9.182;2023-02-28T12:27:29;12.40;;;7.55;;
18146;SDS011;9199;48.832;9.182;2023-02-28T12:30:00;11.07;;;6.95;;
18146;SDS011;9199;48.832;9.182;2023-02-28T12:32:32;10.57;;;7.10;;
18146;SDS011;9199;48.832;9.182;2023-02-28T12:35:03;11.13;;;7.40;;
18146;SDS011;9199;48.832;9.182;2023-02-28T12:37:40;8.77;;;6.60;;
18146;SDS011;9199;48.832;9.182;2023-02-28T12:40:11;10.18;;;6.53;;
18146;SDS011;9199;48.832;9.182;2023-02-28T12:42:40;9.55;;;6.50;;
18146;SDS011;9199;48.832;9.182;2023-02-28T12:45:13;9.63;;;6.60;;
18146;SDS011;9199;48.832;9.182;2023-02-28T12:47:44;10.38;;;6.85;;
18146;SDS011;9199;48.832;9.182;2023-02-28T12:50:14;10.38;;;6.82;;
18146;SDS011;9199;48.832;9.182;2023-02-28T12:52:50;9.75;;;6.53;;
18146;SDS011;9199;48.832;9.182;2023-02-28T12:55:23;9.88;;;6.70;;
18146;SDS011;9199;48.832;9.182;2023-02-28T12:57:58;11.10;;;6.70;;
18146;SDS011;9199;48.832;9.182;2023-02-28T13:00:35;11.85;;;7.07;;
18146;SDS011;9199;48.832;9.182;2023-02-28T13:06:12;11.25;;;6.80;;
18146;SDS011;9199;48.832;9.182;2023-02-28T13:08:56;9.50;;;7.03;;
18146;SDS011;9199;48.832;9.182;2023-02-28T13:11:31;11.47;;;7.63;;
18146;SDS011;9199;48.832;9.182;2023-02-28T13:14:00;11.23;;;7.45;;
18146;SDS011;9199;48.832;9.182;2023-02-28T13:16:48;11.23;;;6.70;;
18146;SDS011;9199;48.832;9.182;2023-02-28T13:19:28;11.40;;;6.93;;
18146;SDS011;9199;48.832;9.182;2023-02-28T13:21:57;10.13;;;6.80;;
18146;SDS011;9199;48.832;9.182;2023-02-28T13:24:45;11.10;;;6.97;;
18146;SDS011;9199;48.832;9.182;2023-02-28T13:27:21;11.63;;;6.53;;
18146;SDS011;9199;48.832;9.182;2023-02-28T13:29:51;11.15;;;6.80;;
18146;SDS011;9199;48.832;9.182;2023-02-28T13:32:20;11.40;;;6.32;;
18146;SDS011;9199;48.832;9.182;2023-02-28T13:38:12;9.17;;;6.50;;
18146;SDS011;9199;48.832;9.182;2023-02-28T13:40:44;9.57;;;6.28;;
18146;SDS011;9199;48.832;9.182;2023-02-28T13:43:12;11.65;;;7.22;;
18146;SDS011;9199;48.832;9.182;2023-02-28T13:48:34;11.00;;;5.90;;
18146;SDS011;9199;48.832;9.182;2023-02-28T13:51:00;10.47;;;5.60;;
18146;SDS011;9199;48.832;9.182;2023-02-28T13:54:13;10.52;;;6.30;;
18146;SDS011;9199;48.832;9.182;2023-02-28T13:56:52;9.73;;;5.78;;
18146;SDS011;9199;48.832;9.182;2023-02-28T13:59:31;9.02;;;6.47;;
18146;SDS011;9199;48.832;9.182;2023-02-28T14:05:00;10.87;;;6.37;;
18146;SDS011;9199;48.832;9.182;2023-02-28T14:07:31;10.23;;;6.35;;
18146;SDS011;9199;48.832;9.182;2023-02-28T14:10:05;9.85;;;7.10;;
18146;SDS011;9199;48.832;9.182;2023-02-28T14:12:55;10.10;;;6.65;;
18146;SDS011;9199;48.832;9.182;2023-02-28T14:18:24;9.43;;;6.77;;
18146;SDS011;9199;48.832;9.182;2023-02-28T14:23:54;10.27;;;6.70;;
18146;SDS011;9199;48.832;9.182;2023-02-28T14:29:45;9.80;;;6.72;;
18146;SDS011;9199;48.832;9.182;2023-02-28T14:32:31;9.93;;;6.57;;
18146;SDS011;9199;48.832;9.182;2023-02-28T14:35:03;14.25;;;7.15;;
18146;SDS011;9199;48.832;9.182;2023-02-28T14:37:39;9.30;;;7.00;;
18146;SDS011;9199;48.832;9.182;2023-02-28T14:40:11;9.68;;;6.90;;
18146;SDS011;9199;48.832;9.182;2023-02-28T14:42:46;13.40;;;7.00;;
18146;SDS011;9199;48.832;9.182;2023-02-28T14:45:19;10.50;;;6.60;;
18146;SDS011;9199;48.832;9.182;2023-02-28T14:47:47;9.48;;;6.55;;
18146;SDS011;9199;48.832;9.182;2023-02-28T14:50:18;12.30;;;7.35;;
18146;SDS011;9199;48.832;9.182;2023-02-28T14:52:46;12.43;;;6.75;;
18146;SDS011;9199;48.832;9.182;2023-02-28T14:55:16;11.02;;;7.40;;
18146;SDS011;9199;48.832;9.182;2023-02-28T14:57:50;11.40;;;7.20;;
18146;SDS011;9199;48.832;9.182;2023-02-28T15:00:22;11.93;;;6.65;;
18146;SDS011;9199;48.832;9.182;2023-02-28T15:02:51;10.82;;;6.68;;
18146;SDS011;9199;48.832;9.182;2023-02-28T15:05:21;10.70;;;7.40;;
18146;SDS011;9199;48.832;9.182;2023-02-28T15:08:00;9.85;;;6.70;;
18146;SDS011;9199;48.832;9.182;2023-02-28T15:10:28;10.17;;;6.90;;
18146;SDS011;9199;48.832;9.182;2023-02-28T15:12:56;10.30;;;6.82;;
18146;SDS011;9199;48.832;9.182;2023-02-28T15:15:33;10.27;;;6.85;;
18146;SDS011;9199;48.832;9.182;2023-02-28T15:18:07;13.30;;;7.68;;
18146;SDS011;9199;48.832;9.182;2023-02-28T15:20:41;11.43;;;7.57;;
18146;SDS011;9199;48.832;9.182;2023-02-28T15:23:09;12.97;;;7.90;;
18146;SDS011;9199;48.832;9.182;2023-02-28T15:25:37;10.35;;;7.20;;
18146;SDS011;9199;48.832;9.182;2023-02-28T15:28:09;12.68;;;7.13;;
18146;SDS011;9199;48.832;9.182;2023-02-28T15:30:49;14.27;;;7.38;;
18146;SDS011;9199;48.832;9.182;2023-02-28T15:33:19;12.77;;;7.55;;
18146;SDS011;9199;48.832;9.182;2023-02-28T15:35:47;12.90;;;8.20;;
18146;SDS011;9199;48.832;9.182;2023-02-28T15:38:15;15.65;;;8.48;;
18146;SDS011;9199;48.832;9.182;2023-02-28T15:40:44;14.15;;;8.00;;
18146;SDS011;9199;48.832;9.182;2023-02-28T15:43:19;12.55;;;7.70;;